createdAt,value
2022-12-31T00:01:25.735Z,93.90
2022-12-31T00:03:52.941Z,93.80
2022-12-31T00:06:30.025Z,93.60
2022-12-31T00:08:59.003Z,93.80
2022-12-31T00:11:27.248Z,93.90
2022-12-31T00:13:54.502Z,93.90
2022-12-31T00:16:30.643Z,93.80
2022-12-31T00:19:01.713Z,93.90
2022-12-31T00:21:30.680Z,94.10
2022-12-31T00:23:57.947Z,94.00
2022-12-31T00:26:27.407Z,93.90
2022-12-31T00:28:55.725Z,94.00
2022-12-31T00:31:25.260Z,94.10
2022-12-31T00:33:52.172Z,94.30
2022-12-31T00:36:24.700Z,94.00
2022-12-31T00:38:53.217Z,93.90
2022-12-31T00:41:21.374Z,94.00
2022-12-31T00:43:48.439Z,94.10
2022-12-31T00:46:16.367Z,94.10
2022-12-31T00:48:43.499Z,94.20
2022-12-31T00:51:13.839Z,94.10
2022-12-31T00:53:41.052Z,93.70
2022-12-31T00:56:11.968Z,94.00
2022-12-31T00:58:39.125Z,93.90
2022-12-31T01:01:14.663Z,93.90
2022-12-31T01:03:41.349Z,93.80
2022-12-31T01:06:08.207Z,93.90
2022-12-31T01:08:35.037Z,93.90
2022-12-31T01:11:31.211Z,94.10
2022-12-31T01:14:00.951Z,93.80
2022-12-31T01:16:38.072Z,93.90
2022-12-31T01:19:07.501Z,94.10
2022-12-31T01:21:35.342Z,93.90
2022-12-31T01:24:02.058Z,93.80
2022-12-31T01:26:29.485Z,94.30
2022-12-31T01:28:56.601Z,93.80
2022-12-31T01:31:24.564Z,93.80
2022-12-31T01:33:52.684Z,94.30
2022-12-31T01:36:26.737Z,93.60
2022-12-31T01:38:55.256Z,93.60
2022-12-31T01:41:24.951Z,93.50
2022-12-31T01:43:54.518Z,93.50
2022-12-31T01:46:35.816Z,93.50
2022-12-31T01:49:08.170Z,93.50
2022-12-31T01:51:35.417Z,93.50
2022-12-31T01:54:06.925Z,93.50
2022-12-31T01:56:36.083Z,93.40
2022-12-31T01:59:06.342Z,93.40
2022-12-31T02:01:33.477Z,93.40
2022-12-31T02:04:11.782Z,93.30
2022-12-31T02:06:43.246Z,93.40
2022-12-31T02:09:11.596Z,93.30
2022-12-31T02:11:38.345Z,93.20
2022-12-31T02:14:26.840Z,93.40
2022-12-31T02:17:12.049Z,93.20
2022-12-31T02:20:01.594Z,93.20
2022-12-31T02:22:43.197Z,93.20
2022-12-31T02:25:28.204Z,93.30
2022-12-31T02:28:12.933Z,93.00
2022-12-31T02:30:42.059Z,93.40
2022-12-31T02:33:16.809Z,93.30
2022-12-31T02:35:55.343Z,93.30
2022-12-31T02:38:31.241Z,93.00
2022-12-31T02:40:58.292Z,93.30
2022-12-31T02:43:25.956Z,93.40
2022-12-31T02:46:25.164Z,93.20
2022-12-31T02:49:12.723Z,93.10
2022-12-31T02:52:21.216Z,93.10
2022-12-31T02:55:02.723Z,93.20
2022-12-31T02:57:40.533Z,93.10
2022-12-31T03:00:30.059Z,93.20
2022-12-31T03:02:57.892Z,93.30
2022-12-31T03:05:29.438Z,93.30
2022-12-31T03:07:56.397Z,93.30
2022-12-31T03:10:23.259Z,93.10
2022-12-31T03:12:51.388Z,93.30
2022-12-31T03:15:28.345Z,93.30
2022-12-31T03:17:54.917Z,93.00
2022-12-31T03:20:43.776Z,93.40
2022-12-31T03:23:13.133Z,93.20
2022-12-31T03:25:40.179Z,93.00
2022-12-31T03:28:11.952Z,93.10
2022-12-31T03:30:39.871Z,93.10
2022-12-31T03:33:07.557Z,93.20
2022-12-31T03:35:36.474Z,93.20
2022-12-31T03:38:03.995Z,93.20
2022-12-31T03:40:32.505Z,93.20
2022-12-31T03:42:59.161Z,93.50
2022-12-31T03:45:26.227Z,93.40
2022-12-31T03:47:52.840Z,93.20
2022-12-31T03:50:20.370Z,93.20
2022-12-31T03:52:47.359Z,93.10
2022-12-31T03:55:14.472Z,93.10
2022-12-31T03:57:41.212Z,93.20
2022-12-31T04:00:12.834Z,93.30
2022-12-31T04:02:40.004Z,93.10
2022-12-31T04:05:07.610Z,93.30
2022-12-31T04:07:34.254Z,93.40
2022-12-31T04:10:00.957Z,93.10
2022-12-31T04:12:27.539Z,93.20
2022-12-31T04:14:54.174Z,92.90
2022-12-31T04:17:20.830Z,93.00
2022-12-31T04:19:47.511Z,93.20
2022-12-31T04:22:14.173Z,92.90
2022-12-31T04:24:42.907Z,92.90
2022-12-31T04:27:10.874Z,93.00
2022-12-31T04:29:37.614Z,93.10
2022-12-31T04:32:05.527Z,92.90
2022-12-31T04:34:33.210Z,92.80
2022-12-31T04:36:59.984Z,92.90
2022-12-31T04:39:26.989Z,92.60
2022-12-31T04:41:54.148Z,92.80
2022-12-31T04:44:20.917Z,92.90
2022-12-31T04:46:47.714Z,92.80
2022-12-31T04:49:14.333Z,92.80
2022-12-31T04:51:41.161Z,92.80
2022-12-31T04:54:07.978Z,92.70
2022-12-31T04:56:36.613Z,92.70
2022-12-31T04:59:05.275Z,92.50
2022-12-31T05:01:32.973Z,92.60
2022-12-31T05:04:00.005Z,92.60
2022-12-31T05:06:26.592Z,92.50
2022-12-31T05:08:53.300Z,92.50
2022-12-31T05:11:19.908Z,92.50
2022-12-31T05:13:46.499Z,92.50
2022-12-31T05:16:13.155Z,92.60
2022-12-31T05:18:39.843Z,92.60
2022-12-31T05:21:06.864Z,92.50
2022-12-31T05:23:33.659Z,92.40
2022-12-31T05:26:00.486Z,92.60
2022-12-31T05:28:27.123Z,92.70
2022-12-31T05:30:53.873Z,92.70
2022-12-31T05:33:21.172Z,92.50
2022-12-31T05:35:47.822Z,92.80
2022-12-31T05:38:14.400Z,93.00
2022-12-31T05:40:41.001Z,93.10
2022-12-31T05:43:07.740Z,93.00
2022-12-31T05:45:34.461Z,92.90
2022-12-31T05:48:01.097Z,93.00
2022-12-31T05:50:27.832Z,92.90
2022-12-31T05:52:54.498Z,92.80
2022-12-31T05:55:21.169Z,93.10
2022-12-31T05:57:47.816Z,93.20
2022-12-31T06:00:14.995Z,93.40
2022-12-31T06:02:41.665Z,93.50
2022-12-31T06:05:08.971Z,93.50
2022-12-31T06:07:35.654Z,93.50
2022-12-31T06:10:02.241Z,93.70
2022-12-31T06:12:28.835Z,93.70
2022-12-31T06:14:55.483Z,93.80
2022-12-31T06:17:22.548Z,94.10
2022-12-31T06:19:49.224Z,93.80
2022-12-31T06:22:16.212Z,93.70
2022-12-31T06:24:42.877Z,93.80
2022-12-31T06:27:09.801Z,93.60
2022-12-31T06:29:36.494Z,93.60
2022-12-31T06:32:03.314Z,93.50
2022-12-31T06:34:29.939Z,93.60
2022-12-31T06:36:56.576Z,93.70
2022-12-31T06:39:23.328Z,93.60
2022-12-31T06:41:49.972Z,94.10
2022-12-31T06:44:16.727Z,94.10
2022-12-31T06:46:43.370Z,94.20
2022-12-31T06:49:10.162Z,94.20
2022-12-31T06:51:36.840Z,94.30
2022-12-31T06:54:03.509Z,94.50
2022-12-31T06:56:34.499Z,94.50
2022-12-31T06:59:02.587Z,94.50
2022-12-31T07:02:10.611Z,94.50
2022-12-31T07:05:02.100Z,94.60
2022-12-31T07:07:43.225Z,94.60
2022-12-31T07:10:31.408Z,94.90
2022-12-31T07:13:25.216Z,94.90
2022-12-31T07:16:07.127Z,95.00
2022-12-31T07:18:41.051Z,95.10
2022-12-31T07:21:13.858Z,95.30
2022-12-31T07:23:42.324Z,95.40
2022-12-31T07:26:47.757Z,95.40
2022-12-31T07:29:50.081Z,95.40
2022-12-31T07:32:42.712Z,95.60
2022-12-31T07:35:12.164Z,95.70
2022-12-31T07:37:51.059Z,95.80
2022-12-31T07:40:38.263Z,95.90
2022-12-31T07:43:11.990Z,95.90
2022-12-31T07:45:38.621Z,95.90
2022-12-31T07:48:21.215Z,95.80
2022-12-31T07:50:48.222Z,95.60
2022-12-31T07:53:15.092Z,95.40
2022-12-31T07:55:41.747Z,95.40
2022-12-31T07:58:30.299Z,95.20
2022-12-31T08:00:57.947Z,95.30
2022-12-31T08:03:55.120Z,95.30
2022-12-31T08:06:32.125Z,95.50
2022-12-31T08:09:16.601Z,95.30
2022-12-31T08:11:58.052Z,95.20
2022-12-31T08:14:25.848Z,95.10
2022-12-31T08:16:53.186Z,95.00
2022-12-31T08:19:31.666Z,94.90
2022-12-31T08:22:04.213Z,95.10
2022-12-31T08:25:14.652Z,95.20
2022-12-31T08:27:44.332Z,95.10
2022-12-31T08:30:13.407Z,94.90
2022-12-31T08:32:49.230Z,94.90
2022-12-31T08:35:45.517Z,95.20
2022-12-31T08:38:34.243Z,94.80
2022-12-31T08:41:06.432Z,95.00
2022-12-31T08:43:55.141Z,95.20
2022-12-31T08:46:32.900Z,95.20
2022-12-31T08:48:59.832Z,95.00
2022-12-31T08:51:27.238Z,95.00
2022-12-31T08:53:55.283Z,95.20
2022-12-31T08:56:27.341Z,95.10
2022-12-31T08:59:13.583Z,95.30
2022-12-31T09:01:58.347Z,95.30
2022-12-31T09:04:27.882Z,95.50
2022-12-31T09:07:01.596Z,95.30
2022-12-31T09:09:46.298Z,95.20
2022-12-31T09:12:12.906Z,95.30
2022-12-31T09:14:50.078Z,95.20
2022-12-31T09:17:34.409Z,95.20
2022-12-31T09:20:01.444Z,95.20
2022-12-31T09:22:28.565Z,95.10
2022-12-31T09:24:55.354Z,95.10
2022-12-31T09:27:28.254Z,95.10
2022-12-31T09:30:08.347Z,95.30
2022-12-31T09:33:00.804Z,95.20
2022-12-31T09:35:53.951Z,95.30
2022-12-31T09:38:43.313Z,95.40
2022-12-31T09:41:30.533Z,95.20
2022-12-31T09:44:15.644Z,95.30
2022-12-31T09:47:01.402Z,95.10
2022-12-31T09:50:06.347Z,95.10
2022-12-31T09:52:58.149Z,95.10
2022-12-31T09:55:30.833Z,95.00
2022-12-31T09:58:24.721Z,94.80
2022-12-31T10:01:22.693Z,94.90
2022-12-31T10:04:08.221Z,94.80
2022-12-31T10:06:34.761Z,94.80
2022-12-31T10:09:10.224Z,94.80
2022-12-31T10:11:56.749Z,94.90
2022-12-31T10:14:47.536Z,94.70
2022-12-31T10:17:52.962Z,94.80
2022-12-31T10:20:47.015Z,94.60
2022-12-31T10:23:54.477Z,94.70
2022-12-31T10:26:27.215Z,94.50
2022-12-31T10:29:14.743Z,94.80
2022-12-31T10:32:29.430Z,94.70
2022-12-31T10:35:16.672Z,94.80
2022-12-31T10:38:13.733Z,94.90
2022-12-31T10:41:24.800Z,94.90
2022-12-31T10:44:10.187Z,95.00
2022-12-31T10:46:55.400Z,94.90
2022-12-31T10:49:37.925Z,94.80
2022-12-31T10:52:41.362Z,94.90
2022-12-31T10:55:27.046Z,94.60
2022-12-31T10:58:28.057Z,94.50
2022-12-31T11:01:21.349Z,94.10
2022-12-31T11:04:34.362Z,94.20
2022-12-31T11:07:22.576Z,94.30
2022-12-31T11:10:26.543Z,94.50
2022-12-31T11:13:11.751Z,94.40
2022-12-31T11:16:00.348Z,94.70
2022-12-31T11:18:49.685Z,94.60
2022-12-31T11:21:22.820Z,94.70
2022-12-31T11:24:24.725Z,94.80
2022-12-31T11:27:13.407Z,94.70
2022-12-31T11:30:19.115Z,94.90
2022-12-31T11:33:08.389Z,95.40
2022-12-31T11:35:50.097Z,95.50
2022-12-31T11:38:36.011Z,95.50
2022-12-31T11:41:27.302Z,95.40
2022-12-31T11:44:13.071Z,95.40
2022-12-31T11:47:25.329Z,95.30
2022-12-31T11:50:10.413Z,95.20
2022-12-31T11:53:00.326Z,94.90
2022-12-31T11:55:42.961Z,94.90
2022-12-31T11:58:20.397Z,95.10
2022-12-31T12:01:16.465Z,94.50
2022-12-31T12:03:44.190Z,94.60
2022-12-31T12:06:16.938Z,94.50
2022-12-31T12:08:45.889Z,94.10
2022-12-31T12:11:27.386Z,94.40
2022-12-31T12:13:53.976Z,94.50
2022-12-31T12:16:22.536Z,94.20
2022-12-31T12:19:04.168Z,94.10
2022-12-31T12:21:31.244Z,94.00
2022-12-31T12:24:00.964Z,94.20
2022-12-31T12:26:39.752Z,94.40
2022-12-31T12:29:18.853Z,94.50
2022-12-31T12:31:56.343Z,94.30
2022-12-31T12:34:35.405Z,94.20
2022-12-31T12:37:03.261Z,94.00
2022-12-31T12:39:34.985Z,94.00
2022-12-31T12:42:05.743Z,93.90
2022-12-31T12:44:33.094Z,93.70
2022-12-31T12:47:02.816Z,94.00
2022-12-31T12:49:36.710Z,93.40
2022-12-31T12:52:28.768Z,93.60
2022-12-31T12:55:36.549Z,93.70
2022-12-31T12:58:19.354Z,93.40
2022-12-31T13:01:26.832Z,94.10
2022-12-31T13:04:34.964Z,93.50
2022-12-31T13:07:26.162Z,93.50
2022-12-31T13:09:55.527Z,93.40
2022-12-31T13:13:22.713Z,93.50
2022-12-31T13:15:49.501Z,93.60
2022-12-31T13:18:18.970Z,93.40
2022-12-31T13:21:29.362Z,93.60
2022-12-31T13:24:32.313Z,93.70
2022-12-31T13:27:12.476Z,93.80
2022-12-31T13:29:41.277Z,93.70
2022-12-31T13:32:10.862Z,94.20
2022-12-31T13:34:42.039Z,93.80
2022-12-31T13:37:36.483Z,94.10
2022-12-31T13:40:32.268Z,94.10
2022-12-31T13:43:05.994Z,94.00
2022-12-31T13:45:39.277Z,94.10
2022-12-31T13:48:17.508Z,93.80
2022-12-31T13:51:24.291Z,93.90
2022-12-31T13:54:15.243Z,93.90
2022-12-31T13:56:45.399Z,94.00
2022-12-31T13:59:27.191Z,94.10
2022-12-31T14:02:12.431Z,93.90
2022-12-31T14:04:58.468Z,93.90
2022-12-31T14:07:45.948Z,93.90
2022-12-31T14:10:20.548Z,94.00
2022-12-31T14:12:55.193Z,94.10
2022-12-31T14:15:33.305Z,93.90
2022-12-31T14:18:18.947Z,93.60
2022-12-31T14:21:00.686Z,93.80
2022-12-31T14:24:01.173Z,93.60
2022-12-31T14:26:36.343Z,93.60
2022-12-31T14:29:05.895Z,93.80
2022-12-31T14:31:53.721Z,93.70
2022-12-31T14:34:54.078Z,93.40
2022-12-31T14:37:46.388Z,93.70
2022-12-31T14:40:25.288Z,93.80
2022-12-31T14:43:18.673Z,93.50
2022-12-31T14:46:04.081Z,93.50
2022-12-31T14:49:15.299Z,93.00
2022-12-31T14:51:42.099Z,93.10
2022-12-31T14:54:34.233Z,92.60
2022-12-31T14:57:24.563Z,92.60
2022-12-31T14:59:55.381Z,92.80
2022-12-31T15:02:31.272Z,92.30
2022-12-31T15:05:10.063Z,92.60
2022-12-31T15:08:17.932Z,92.30
2022-12-31T15:11:02.144Z,92.20
2022-12-31T15:14:06.568Z,92.10
2022-12-31T15:16:58.023Z,92.40
2022-12-31T15:19:49.895Z,92.20
2022-12-31T15:22:34.521Z,92.20
2022-12-31T15:25:01.522Z,92.10
2022-12-31T15:27:35.588Z,91.60
2022-12-31T15:30:07.263Z,91.80
2022-12-31T15:32:39.762Z,91.60
2022-12-31T15:35:21.394Z,91.40
2022-12-31T15:38:16.573Z,91.00
2022-12-31T15:40:52.551Z,90.60
2022-12-31T15:43:25.423Z,90.30
2022-12-31T15:45:54.124Z,90.20
2022-12-31T15:48:43.250Z,90.60
2022-12-31T15:51:21.308Z,90.10
2022-12-31T15:53:53.025Z,90.00
2022-12-31T15:56:24.245Z,89.50
2022-12-31T15:58:55.213Z,90.10
2022-12-31T16:01:24.631Z,88.80
2022-12-31T16:04:04.278Z,88.40
2022-12-31T16:06:33.737Z,86.00
2022-12-31T16:09:00.575Z,86.60
2022-12-31T16:11:30.268Z,88.10
2022-12-31T16:13:59.578Z,85.60
2022-12-31T16:16:31.615Z,87.10
2022-12-31T16:18:59.338Z,87.30
2022-12-31T16:21:34.328Z,86.20
2022-12-31T16:24:06.515Z,86.80
2022-12-31T16:26:46.191Z,85.00
2022-12-31T16:29:18.226Z,85.60
2022-12-31T16:31:46.377Z,84.50
2022-12-31T16:34:16.832Z,84.40
2022-12-31T16:36:54.715Z,84.20
2022-12-31T16:39:34.141Z,84.50
2022-12-31T16:42:14.077Z,84.10
2022-12-31T16:44:41.289Z,84.50
2022-12-31T16:47:10.050Z,82.30
2022-12-31T16:49:39.098Z,83.70
2022-12-31T16:52:17.684Z,84.00
2022-12-31T16:54:47.264Z,83.90
2022-12-31T16:57:23.460Z,80.30
2022-12-31T16:59:55.757Z,81.30
2022-12-31T17:02:30.031Z,81.50
2022-12-31T17:04:56.760Z,81.50
2022-12-31T17:07:30.883Z,81.00
2022-12-31T17:10:06.384Z,81.50
2022-12-31T17:13:00.576Z,79.80
2022-12-31T17:15:29.724Z,79.50
2022-12-31T17:18:01.117Z,80.30
2022-12-31T17:20:30.898Z,81.10
2022-12-31T17:23:05.137Z,79.90
2022-12-31T17:25:34.141Z,80.00
2022-12-31T17:28:07.163Z,78.50
2022-12-31T17:30:34.526Z,78.00
2022-12-31T17:33:03.548Z,77.60
2022-12-31T17:35:35.196Z,79.20
2022-12-31T17:38:20.317Z,77.90
2022-12-31T17:40:54.296Z,78.80
2022-12-31T17:43:23.371Z,77.90
2022-12-31T17:45:54.489Z,77.30
2022-12-31T17:48:24.613Z,77.50
2022-12-31T17:50:59.710Z,76.30
2022-12-31T17:53:26.524Z,77.30
2022-12-31T17:55:56.503Z,77.10
2022-12-31T17:58:43.020Z,76.10
2022-12-31T18:01:10.335Z,76.80
2022-12-31T18:03:37.090Z,76.50
2022-12-31T18:06:05.356Z,76.20
2022-12-31T18:08:32.117Z,76.70
2022-12-31T18:10:58.829Z,75.80
2022-12-31T18:13:27.104Z,75.40
2022-12-31T18:15:54.384Z,75.70
2022-12-31T18:18:26.519Z,75.00
2022-12-31T18:21:05.122Z,73.90
2022-12-31T18:23:40.102Z,72.80
2022-12-31T18:26:06.773Z,73.80
2022-12-31T18:28:33.406Z,74.60
2022-12-31T18:31:00.208Z,74.30
2022-12-31T18:33:27.182Z,72.20
2022-12-31T18:36:10.442Z,72.30
2022-12-31T18:38:37.421Z,72.40
2022-12-31T18:41:04.661Z,72.00
2022-12-31T18:43:31.551Z,72.10
2022-12-31T18:45:58.600Z,72.70
2022-12-31T18:48:25.230Z,72.70
2022-12-31T18:50:51.840Z,71.60
2022-12-31T18:53:21.804Z,72.10
2022-12-31T18:55:54.364Z,72.20
2022-12-31T18:58:21.119Z,71.30
2022-12-31T19:00:48.941Z,71.60
2022-12-31T19:03:27.229Z,71.80
2022-12-31T19:05:54.230Z,71.80
2022-12-31T19:08:22.581Z,71.80
2022-12-31T19:10:51.812Z,71.20
2022-12-31T19:13:20.131Z,71.70
2022-12-31T19:15:49.534Z,70.70
2022-12-31T19:18:16.318Z,70.40
2022-12-31T19:20:43.155Z,69.60
2022-12-31T19:23:16.427Z,70.60
2022-12-31T19:25:43.495Z,69.20
2022-12-31T19:28:30.416Z,69.80
2022-12-31T19:30:57.081Z,69.20
2022-12-31T19:33:23.953Z,69.20
2022-12-31T19:35:50.603Z,68.50
2022-12-31T19:38:23.633Z,68.10
2022-12-31T19:40:52.513Z,67.20
2022-12-31T19:43:21.056Z,68.60
2022-12-31T19:45:48.950Z,67.40
2022-12-31T19:48:28.711Z,67.30
2022-12-31T19:50:59.130Z,67.30
2022-12-31T19:53:27.492Z,67.30
2022-12-31T19:55:54.216Z,67.80
2022-12-31T19:58:25.974Z,67.50
2022-12-31T20:01:02.383Z,67.40
2022-12-31T20:03:31.604Z,67.30
2022-12-31T20:06:09.639Z,67.40
2022-12-31T20:08:37.929Z,67.10
2022-12-31T20:11:13.196Z,67.80
2022-12-31T20:13:41.109Z,66.80
2022-12-31T20:16:13.813Z,67.10
2022-12-31T20:18:42.030Z,66.50
2022-12-31T20:21:15.263Z,66.90
2022-12-31T20:23:41.940Z,66.90
2022-12-31T20:26:09.016Z,66.90
2022-12-31T20:28:36.918Z,66.70
2022-12-31T20:31:12.745Z,66.00
2022-12-31T20:33:39.463Z,65.60
2022-12-31T20:36:08.181Z,65.90
2022-12-31T20:38:34.815Z,66.20
2022-12-31T20:41:05.677Z,66.30
2022-12-31T20:43:34.031Z,66.20
2022-12-31T20:46:10.938Z,66.00
2022-12-31T20:48:41.395Z,66.10
2022-12-31T20:51:08.383Z,66.50
2022-12-31T20:53:34.964Z,65.90
2022-12-31T20:56:05.629Z,66.60
2022-12-31T20:58:32.305Z,66.70
2022-12-31T21:00:59.171Z,66.80
2022-12-31T21:04:03.032Z,67.10
2022-12-31T21:06:13.271Z,66.90
2022-12-31T21:08:40.199Z,66.50
2022-12-31T21:11:27.695Z,66.10
2022-12-31T21:13:55.619Z,66.10
2022-12-31T21:16:22.318Z,66.40
2022-12-31T21:18:49.090Z,66.20
2022-12-31T21:21:15.783Z,65.70
2022-12-31T21:23:42.390Z,65.80
2022-12-31T21:26:09.061Z,66.30
2022-12-31T21:28:36.017Z,66.20
2022-12-31T21:31:07.080Z,66.50
2022-12-31T21:33:34.600Z,66.50
2022-12-31T21:36:04.789Z,66.20
2022-12-31T21:38:31.897Z,66.10
2022-12-31T21:41:03.097Z,66.50
2022-12-31T21:43:30.144Z,65.50
2022-12-31T21:46:05.036Z,66.00
2022-12-31T21:48:31.863Z,66.00
2022-12-31T21:51:12.705Z,66.00
2022-12-31T21:53:40.136Z,65.20
2022-12-31T21:56:11.840Z,65.70
2022-12-31T21:58:41.055Z,66.60
2022-12-31T22:01:29.087Z,65.70
2022-12-31T22:03:55.803Z,66.10
2022-12-31T22:06:24.524Z,66.60
2022-12-31T22:08:55.823Z,66.40
2022-12-31T22:11:25.887Z,66.50
2022-12-31T22:13:53.611Z,66.00
2022-12-31T22:16:21.837Z,66.50
2022-12-31T22:18:48.801Z,66.90
2022-12-31T22:21:21.194Z,67.20
2022-12-31T22:23:49.962Z,67.00
2022-12-31T22:26:19.445Z,67.10
2022-12-31T22:28:46.529Z,66.40
2022-12-31T22:31:18.936Z,66.60
2022-12-31T22:33:46.395Z,65.70
2022-12-31T22:36:16.480Z,65.90
2022-12-31T22:38:43.568Z,65.80
2022-12-31T22:41:15.896Z,65.50
2022-12-31T22:43:45.613Z,65.10
2022-12-31T22:46:18.374Z,65.00
2022-12-31T22:48:45.077Z,64.80
2022-12-31T22:51:13.046Z,65.10
2022-12-31T22:53:41.099Z,64.80
2022-12-31T22:56:09.175Z,64.60
2022-12-31T22:58:36.292Z,64.90
2022-12-31T23:01:22.443Z,64.80
2022-12-31T23:03:51.299Z,64.60
2022-12-31T23:06:18.828Z,64.70
2022-12-31T23:09:05.929Z,64.80
2022-12-31T23:11:34.633Z,65.10
2022-12-31T23:14:19.737Z,64.70
2022-12-31T23:17:29.619Z,64.80
2022-12-31T23:20:10.435Z,65.20
2022-12-31T23:22:55.808Z,65.00
2022-12-31T23:25:22.455Z,64.70
2022-12-31T23:27:49.056Z,64.90
2022-12-31T23:30:15.720Z,64.30
2022-12-31T23:32:42.367Z,64.50
2022-12-31T23:35:09.965Z,65.30
2022-12-31T23:37:37.160Z,64.90
2022-12-31T23:40:04.359Z,65.30
2022-12-31T23:42:31.025Z,64.80
2022-12-31T23:44:57.664Z,65.20
2022-12-31T23:47:24.305Z,65.20
2022-12-31T23:49:50.980Z,65.50
2022-12-31T23:52:17.563Z,65.30
2022-12-31T23:54:44.146Z,65.10
2022-12-31T23:57:10.773Z,65.40
2022-12-31T23:59:37.409Z,65.60
